KLEW/LEW METAR and TAF weather

Enter ICAO airport designator
Station Type Date Time Source
KLEW METAR 2019/10/14 05:34 UTC NOAA

KLEW 140534Z AUTO 00000KT 1SM BR VV002 06/06 A3003 RMK AO2 VIS 1/4V5


Station Type Date Time Source
KLEW Decoded METAR 2019/10/14 05:34 UTC NOAA

Auburn-Lewiston, ME, United States (KLEW) 44-03N 070-17W
Oct 14, 2019 - 01:34 AM EDT / 2019.10.14 0534 UTC
Wind: Calm:0
Visibility: 1 mile(s):0
Sky conditions: obscured
Weather: mist
Temperature: 42 F (6 C)
Dew Point: 42 F (6 C)
Relative Humidity: 100%
Pressure (altimeter): 30.03 in. Hg (1016 hPa)
ob: KLEW 140534Z AUTO 00000KT 1SM BR VV002 06/06 A3003 RMK AO2 VIS 1/4V5
cycle: 5

Station Type Date Time Source
KLEW TAF UTC NOAA

Error!

Example: see airport list